Terminal Aerodrome Forecast
Issued by NWS

Home | Current Version | Previous Version | Text Only | Print | Product List | Glossary On
Versions: 1 2 3 4 5 6 7 8 9 10 11 12 13 14 15 16 17 18 19 20 21 22 23 24
000
FTUS43 KSGF 021200 AAA
TAFJLN
TAF AMD
KJLN 021214Z 0212/0312 06005KT P6SM BKN250
     FM021400 10008KT P6SM BKN250
     FM022100 13007KT P6SM BKN025
     FM030300 15008KT P6SM OVC015 PROB30 0306/0310 3SM -RA BR
      OVC007=

USA.gov is the U.S. government's official web portal to all federal, state and local government web resources and services.